KOWD

Norwood Memorial Airport

Norwood, Massachusetts, USA
METAR KOWD 231053Z AUTO 00000KT 1/2SM FG VV002 02/02 A2997 RMK AO2 SLP150 T00220022
Observed Flight Rules
Jan-23 @ 10:53 UTC (50 minutes ago) Instrument Flight Rules
Wind Visibility Clouds Conditions
Calm 1/2 miles
  • Vertical visibility at 200' AGL
  • Fog
Temperatures Readings
Current 2°C / 36°F
Dewpoint 2°C / 36°F
Humidity 100%
Altimeter 29.97" Hg
Pressure 1015 hPa
Elevation 19
METAR KOWD 231053Z AUTO 00000KT 1/2SM FG VV002 02/02 A2997 RMK AO2 SLP150 T00220022
Observed Flight Rules
Jan-23 @ 10:53 UTC
(50 minutes ago)
LIFR
Wind Visibility
Calm 1/2 miles
Clouds
  • Vertical visibility at 200' AGL
Conditions
  • Fog
Temperature Dewpoint
2°C / 36°F 2°C / 36°F
Humidity Altimeter Pressure
100% 29.97" Hg 1015 hPa